Time;durP1;ratioP1;P1;durP2;ratioP2;P2;SDS_P1;SDS_P2;PMS_P1;PMS_P2;Temp;Humidity;BMP_temperature;BMP_pressure;BME280_temperature;BME280_humidity;BME280_pressure;Samples;Min_cycle;Max_cycle;Signal;HPM_P1;HPM_P2
2022/04/26 03:36:21;;;;;;;18.88;11.50;;;8.60;99.90;;;;;;4985960;28;20041;-86
2022/04/26 03:38:48;;;;;;;18.52;11.95;;;8.60;99.90;;;;;;4988953;28;20030;-87
2022/04/26 03:41:14;;;;;;;19.60;11.13;;;8.60;99.90;;;;;;5005548;28;20117;-80
2022/04/26 03:43:41;;;;;;;19.33;11.40;;;8.50;99.90;;;;;;4986972;28;20077;-81
2022/04/26 03:46:07;;;;;;;19.10;11.15;;;8.50;99.90;;;;;;4991378;28;20057;-81
2022/04/26 03:48:32;;;;;;;20.15;11.63;;;8.60;99.90;;;;;;4989669;28;20508;-81
2022/04/26 03:50:59;;;;;;;18.05;10.98;;;8.60;99.90;;;;;;4986159;28;20037;-87
2022/04/26 03:53:24;;;;;;;20.83;12.10;;;8.60;99.90;;;;;;5002964;28;20084;-86
2022/04/26 03:55:50;;;;;;;21.52;11.93;;;8.70;99.90;;;;;;5021541;28;20039;-86
2022/04/26 03:58:16;;;;;;;21.60;12.40;;;8.30;99.90;;;;;;5012729;28;20035;-80
2022/04/26 04:00:41;;;;;;;21.73;12.73;;;8.30;99.90;;;;;;4980282;28;20082;-81
2022/04/26 04:03:07;;;;;;;19.25;12.13;;;8.50;99.90;;;;;;4972076;28;20486;-87
2022/04/26 04:05:33;;;;;;;21.10;11.43;;;8.30;99.90;;;;;;4989705;28;20110;-87
2022/04/26 04:07:59;;;;;;;20.88;11.93;;;8.40;99.90;;;;;;4976315;28;20536;-87
2022/04/26 04:10:25;;;;;;;20.38;12.20;;;8.30;99.90;;;;;;4991535;28;20113;-87
2022/04/26 04:12:50;;;;;;;22.27;11.60;;;8.30;99.90;;;;;;4990517;28;20398;-87
2022/04/26 04:15:16;;;;;;;24.75;13.18;;;8.40;99.90;;;;;;4975488;28;20485;-87
2022/04/26 04:17:42;;;;;;;22.10;11.70;;;8.50;99.90;;;;;;4991435;28;20030;-87
2022/04/26 04:20:08;;;;;;;22.25;12.18;;;8.50;99.90;;;;;;4991367;28;20036;-87
2022/04/26 04:22:34;;;;;;;19.45;11.80;;;8.50;99.90;;;;;;4988227;28;20066;-87
2022/04/26 04:24:59;;;;;;;24.80;12.32;;;8.50;99.90;;;;;;4989571;28;20069;-87
2022/04/26 04:27:25;;;;;;;20.38;12.05;;;8.50;99.90;;;;;;4981415;28;20027;-87
2022/04/26 04:29:51;;;;;;;23.15;12.55;;;8.60;99.90;;;;;;4985974;28;20553;-87
2022/04/26 04:32:17;;;;;;;20.20;12.15;;;8.50;99.90;;;;;;4978503;28;20099;-81
2022/04/26 04:34:43;;;;;;;26.25;11.70;;;8.50;99.90;;;;;;5004727;28;20149;-81
2022/04/26 04:37:09;;;;;;;20.67;11.50;;;8.50;99.90;;;;;;5008667;28;20049;-81
2022/04/26 04:39:35;;;;;;;20.98;12.15;;;8.40;99.90;;;;;;5000049;28;21730;-81
2022/04/26 04:42:01;;;;;;;21.30;11.25;;;8.40;99.90;;;;;;4987369;28;20065;-81
2022/04/26 04:44:27;;;;;;;19.55;10.77;;;8.50;99.90;;;;;;4990157;28;20052;-81
2022/04/26 04:46:54;;;;;;;17.65;10.43;;;8.50;99.90;;;;;;4989561;28;20050;-81
2022/04/26 04:49:20;;;;;;;18.38;10.10;;;8.40;99.90;;;;;;4990523;28;20382;-80
2022/04/26 04:51:46;;;;;;;18.50;11.43;;;8.20;99.90;;;;;;4981469;28;20121;-81
2022/04/26 04:54:11;;;;;;;22.95;11.52;;;8.20;99.90;;;;;;4989018;28;20027;-80
2022/04/26 04:56:37;;;;;;;20.88;11.20;;;8.20;99.90;;;;;;4988680;28;20089;-86
2022/04/26 04:59:03;;;;;;;24.83;10.95;;;8.20;99.90;;;;;;4976594;28;20027;-81
2022/04/26 05:01:28;;;;;;;19.60;10.45;;;8.30;99.90;;;;;;4988720;28;20047;-86
2022/04/26 05:03:54;;;;;;;20.73;10.40;;;8.30;99.90;;;;;;5004021;28;20062;-86
2022/04/26 05:06:20;;;;;;;21.02;11.35;;;8.30;99.90;;;;;;4987114;28;20225;-86
2022/04/26 05:08:46;;;;;;;21.17;10.55;;;8.40;99.90;;;;;;4981974;28;20030;-85
2022/04/26 05:11:12;;;;;;;19.48;11.23;;;8.30;99.90;;;;;;4982807;28;20096;-86
2022/04/26 05:13:38;;;;;;;20.17;9.90;;;8.30;99.90;;;;;;4978582;28;20030;-86
2022/04/26 05:16:04;;;;;;;19.27;10.25;;;8.30;99.90;;;;;;4990123;28;20019;-86
2022/04/26 05:18:30;;;;;;;23.73;12.15;;;8.30;99.90;;;;;;5003749;28;20026;-81
2022/04/26 05:20:55;;;;;;;18.02;10.45;;;8.40;99.90;;;;;;4975758;28;20034;-79
2022/04/26 05:26:06;;;;;;;17.45;9.15;;;8.70;99.90;;;;;;4986892;28;20045;-80
2022/04/26 05:28:31;;;;;;;20.92;10.57;;;8.70;99.90;;;;;;4977493;28;20141;-80
2022/04/26 05:30:57;;;;;;;19.02;11.13;;;8.70;99.90;;;;;;4984532;28;20486;-80
2022/04/26 05:33:25;;;;;;;20.23;11.10;;;8.70;99.90;;;;;;4987870;28;20470;-80
2022/04/26 05:35:52;;;;;;;18.77;10.30;;;8.70;99.90;;;;;;4996168;28;20030;-80
2022/04/26 05:38:18;;;;;;;17.33;10.40;;;8.70;99.90;;;;;;5002578;28;20089;-80
2022/04/26 05:40:44;;;;;;;17.00;10.45;;;8.80;99.90;;;;;;5003478;28;20758;-81
2022/04/26 05:43:10;;;;;;;15.43;9.68;;;8.90;99.90;;;;;;4983214;28;20125;-85
2022/04/26 05:45:36;;;;;;;20.05;9.90;;;9.00;99.90;;;;;;4994079;28;20117;-86
2022/04/26 05:48:03;;;;;;;16.38;9.60;;;9.00;99.90;;;;;;4990205;28;20030;-86
2022/04/26 05:50:29;;;;;;;15.80;9.75;;;9.00;99.90;;;;;;4988477;28;20035;-80
2022/04/26 05:52:54;;;;;;;18.98;10.40;;;9.10;99.90;;;;;;4989441;28;20073;-81
2022/04/26 05:55:20;;;;;;;18.23;10.70;;;9.20;99.90;;;;;;4989601;28;20081;-80
2022/04/26 05:57:45;;;;;;;15.15;9.85;;;9.10;99.90;;;;;;4988947;28;20106;-80
2022/04/26 06:00:13;;;;;;;16.52;10.70;;;9.10;99.90;;;;;;4987966;28;20766;-80
2022/04/26 06:02:40;;;;;;;14.70;9.50;;;9.20;99.90;;;;;;4988988;28;20141;-80
2022/04/26 06:05:05;;;;;;;13.60;7.65;;;9.20;99.90;;;;;;4986966;28;20038;-80
2022/04/26 06:07:31;;;;;;;20.42;9.95;;;9.10;99.90;;;;;;4989073;28;20031;-80
2022/04/26 06:09:57;;;;;;;17.65;9.43;;;9.20;99.90;;;;;;4985343;28;20031;-80
2022/04/26 06:12:26;;;;;;;15.70;9.15;;;9.40;99.90;;;;;;4986418;28;20399;-80
2022/04/26 06:14:56;;;;;;;15.32;9.60;;;9.30;99.90;;;;;;4985397;28;20029;-85
2022/04/26 06:17:22;;;;;;;15.70;8.77;;;9.30;99.90;;;;;;4993956;28;20049;-85
2022/04/26 06:19:48;;;;;;;13.45;7.40;;;9.40;99.90;;;;;;4995975;28;20418;-86
2022/04/26 06:22:14;;;;;;;12.45;7.30;;;9.40;99.90;;;;;;4991278;28;20034;-86
2022/04/26 06:24:39;;;;;;;13.15;7.55;;;9.30;99.90;;;;;;4990496;28;20338;-86
2022/04/26 06:27:05;;;;;;;14.20;7.75;;;9.20;99.90;;;;;;4996201;28;20098;-85
2022/04/26 06:29:31;;;;;;;13.20;7.95;;;9.10;99.90;;;;;;4991371;28;20061;-86
2022/04/26 06:31:57;;;;;;;12.90;8.27;;;9.10;99.90;;;;;;4985236;28;20039;-85
2022/04/26 06:34:22;;;;;;;14.23;8.35;;;9.20;99.90;;;;;;4980781;28;20109;-86
2022/04/26 06:36:48;;;;;;;12.70;7.47;;;9.30;99.90;;;;;;4986961;28;20033;-86
2022/04/26 06:39:14;;;;;;;13.80;8.10;;;9.40;99.90;;;;;;4956747;28;20121;-86
2022/04/26 06:41:40;;;;;;;9.00;6.35;;;9.30;99.90;;;;;;4999859;28;20117;-86
2022/04/26 06:44:06;;;;;;;11.15;7.25;;;9.30;99.90;;;;;;4993394;28;20038;-86
2022/04/26 06:46:31;;;;;;;13.70;7.85;;;9.20;99.90;;;;;;4992590;28;20505;-80
2022/04/26 06:48:58;;;;;;;10.50;5.72;;;9.10;99.90;;;;;;5002175;28;20068;-79
2022/04/26 06:51:25;;;;;;;11.13;6.38;;;9.00;99.90;;;;;;5007341;28;20041;-80
2022/04/26 06:53:51;;;;;;;10.40;6.93;;;8.80;99.90;;;;;;4990933;28;20045;-80
2022/04/26 06:56:17;;;;;;;9.18;6.00;;;8.80;99.90;;;;;;4985275;28;20053;-80
2022/04/26 06:58:43;;;;;;;7.88;5.45;;;8.90;99.90;;;;;;5007452;28;20064;-80
2022/04/26 07:01:08;;;;;;;10.75;5.80;;;8.70;99.90;;;;;;5005484;28;20046;-80
2022/04/26 07:03:34;;;;;;;26.20;16.52;;;8.60;99.90;;;;;;4989361;28;20141;-80
2022/04/26 07:06:00;;;;;;;31.63;19.08;;;8.50;99.90;;;;;;5001544;28;20394;-81
2022/04/26 07:08:25;;;;;;;13.35;9.60;;;8.50;99.90;;;;;;4987141;28;20497;-80
2022/04/26 07:10:51;;;;;;;10.00;8.40;;;8.40;99.90;;;;;;4990060;28;20026;-86
2022/04/26 07:13:20;;;;;;;8.93;6.20;;;8.40;99.90;;;;;;4996739;28;20053;-86
2022/04/26 07:15:46;;;;;;;8.32;5.90;;;8.30;99.90;;;;;;4998379;28;20068;-86
2022/04/26 07:18:12;;;;;;;10.05;5.15;;;8.30;99.90;;;;;;4987573;28;20160;-86
2022/04/26 07:20:39;;;;;;;9.50;7.18;;;8.40;99.90;;;;;;4990120;28;20486;-86
2022/04/26 07:23:05;;;;;;;8.68;6.03;;;8.20;99.90;;;;;;4986943;28;20045;-85
2022/04/26 07:25:30;;;;;;;13.18;7.47;;;8.20;99.90;;;;;;4991029;28;20273;-85
2022/04/26 07:27:56;;;;;;;8.30;5.05;;;7.90;99.90;;;;;;4991202;28;20045;-86
2022/04/26 07:30:22;;;;;;;11.25;4.82;;;7.80;99.90;;;;;;4989144;28;20117;-85
2022/04/26 07:35:32;;;;;;;9.40;4.13;;;7.70;99.90;;;;;;4988750;28;20158;-86
2022/04/26 07:38:05;;;;;;;6.15;3.50;;;7.30;99.90;;;;;;4989861;28;20102;-85
2022/04/26 07:40:32;;;;;;;11.10;4.70;;;7.00;99.90;;;;;;5001969;28;20446;-86
2022/04/26 07:42:58;;;;;;;14.48;4.97;;;7.00;99.90;;;;;;4983489;28;20034;-80
2022/04/26 07:45:24;;;;;;;6.63;4.32;;;7.10;99.90;;;;;;4988107;28;20092;-81
2022/04/26 07:47:50;;;;;;;8.13;5.57;;;7.30;99.90;;;;;;4985648;28;20034;-81
2022/04/26 07:50:17;;;;;;;9.05;5.10;;;7.50;99.90;;;;;;4988691;28;20030;-81
2022/04/26 07:52:42;;;;;;;8.45;4.40;;;8.00;99.90;;;;;;4983266;28;20034;-81
2022/04/26 07:55:10;;;;;;;5.93;3.88;;;8.00;99.90;;;;;;4987498;28;20080;-81
2022/04/26 07:57:37;;;;;;;7.57;4.43;;;8.20;99.90;;;;;;4985654;28;20221;-79
2022/04/26 08:00:03;;;;;;;6.47;4.57;;;8.30;99.90;;;;;;4989656;28;20050;-80
2022/04/26 08:02:29;;;;;;;6.90;3.78;;;8.30;99.90;;;;;;4981529;28;20130;-81
2022/04/26 08:05:00;;;;;;;7.15;4.00;;;8.40;99.90;;;;;;4990518;28;20122;-81
2022/04/26 08:07:26;;;;;;;9.70;6.90;;;8.30;99.90;;;;;;5000118;28;20073;-80
2022/04/26 08:09:51;;;;;;;5.47;3.08;;;8.30;99.90;;;;;;4964941;28;20030;-80
2022/04/26 08:12:17;;;;;;;6.25;3.38;;;8.10;99.90;;;;;;4990796;28;20505;-82
2022/04/26 08:14:42;;;;;;;5.05;3.58;;;8.00;99.90;;;;;;5006284;28;20062;-80
2022/04/26 08:17:08;;;;;;;6.70;3.17;;;7.80;99.90;;;;;;4988184;28;20054;-81
2022/04/26 08:19:34;;;;;;;4.35;2.97;;;7.80;99.90;;;;;;4989662;28;20121;-81
2022/04/26 08:21:59;;;;;;;9.43;3.83;;;7.60;99.90;;;;;;4986722;28;20043;-81
2022/04/26 08:27:30;;;;;;;5.68;2.92;;;7.60;99.90;;;;;;4979600;28;20049;-80
2022/04/26 08:29:57;;;;;;;5.47;3.05;;;7.80;99.90;;;;;;4998272;28;20030;-81
2022/04/26 08:32:26;;;;;;;3.85;2.78;;;7.60;99.90;;;;;;4989491;28;20127;-81
2022/04/26 08:34:53;;;;;;;7.07;3.17;;;7.50;99.90;;;;;;4986406;28;20030;-81
2022/04/26 08:37:19;;;;;;;5.38;2.70;;;7.50;99.90;;;;;;4985268;28;20335;-80
2022/04/26 08:39:44;;;;;;;4.60;3.10;;;7.50;99.90;;;;;;4986880;28;20089;-81
2022/04/26 08:42:10;;;;;;;14.48;4.38;;;7.20;99.90;;;;;;4983871;28;20124;-81
2022/04/26 08:44:38;;;;;;;6.18;2.83;;;7.10;99.90;;;;;;5004582;28;20051;-81
2022/04/26 08:52:51;;;;;;;6.05;3.05;;;7.10;99.90;;;;;;4986353;28;20045;-80
2022/04/26 08:55:17;;;;;;;6.78;3.35;;;7.10;99.90;;;;;;4996581;28;20038;-80
2022/04/26 08:57:43;;;;;;;5.05;3.28;;;7.10;99.90;;;;;;4989389;28;20389;-80
2022/04/26 09:00:11;;;;;;;7.30;3.22;;;7.20;99.90;;;;;;4988641;28;20054;-80
2022/04/26 09:02:38;;;;;;;4.85;3.05;;;7.20;99.90;;;;;;4970821;28;20117;-80
2022/04/26 09:05:13;;;;;;;7.50;4.75;;;7.20;99.90;;;;;;4989204;28;20041;-80
2022/04/26 09:07:40;;;;;;;6.53;3.65;;;7.30;99.90;;;;;;4983174;28;20073;-81
2022/04/26 09:10:20;;;;;;;6.65;4.03;;;7.10;99.90;;;;;;4989600;28;20034;-81
2022/04/26 09:13:09;;;;;;;7.00;4.13;;;7.10;99.90;;;;;;4988689;28;20173;-80
2022/04/26 09:15:45;;;;;;;7.68;3.90;;;6.90;99.90;;;;;;4989257;28;20037;-80
2022/04/26 09:18:30;;;;;;;7.95;5.00;;;7.00;99.90;;;;;;4971216;28;20047;-80
2022/04/26 09:20:56;;;;;;;12.82;5.65;;;7.20;99.90;;;;;;4975277;28;20084;-81
2022/04/26 09:23:24;;;;;;;10.35;5.90;;;7.20;99.90;;;;;;4989010;28;20046;-81
2022/04/26 09:26:09;;;;;;;10.00;5.07;;;7.40;99.90;;;;;;4963589;28;20043;-81
2022/04/26 09:28:51;;;;;;;10.57;4.45;;;7.40;99.90;;;;;;4996315;28;20034;-81
2022/04/26 09:31:21;;;;;;;9.32;4.55;;;7.50;99.90;;;;;;4976548;28;20035;-81
2022/04/26 09:33:52;;;;;;;8.45;4.43;;;7.40;99.90;;;;;;5003413;28;20018;-81
2022/04/26 09:36:19;;;;;;;;;;;7.50;99.90;;;;;;4989821;28;20097;-81
2022/04/26 09:38:52;;;;;;;8.45;4.68;;;7.60;99.90;;;;;;4973308;28;19961;-80
2022/04/26 09:41:19;;;;;;;8.75;5.07;;;7.70;99.90;;;;;;4987471;28;20038;-80
2022/04/26 09:44:05;;;;;;;9.98;5.25;;;7.60;99.90;;;;;;4988689;28;20057;-81
2022/04/26 09:46:43;;;;;;;8.52;5.18;;;7.80;99.90;;;;;;4992330;28;20048;-81
2022/04/26 09:49:10;;;;;;;10.45;5.75;;;7.90;99.90;;;;;;4990950;28;20380;-80
2022/04/26 09:51:40;;;;;;;10.63;7.32;;;8.10;99.90;;;;;;4988676;28;20631;-83
2022/04/26 09:54:06;;;;;;;9.68;5.88;;;8.20;99.90;;;;;;4987380;28;20030;-80
2022/04/26 09:56:33;;;;;;;11.63;5.75;;;8.50;99.90;;;;;;4987525;28;20034;-80
2022/04/26 09:59:01;;;;;;;7.57;4.93;;;8.70;99.90;;;;;;4989670;28;20026;-80
2022/04/26 10:01:41;;;;;;;9.05;5.70;;;8.70;99.90;;;;;;4987103;28;20050;-80
2022/04/26 10:04:09;;;;;;;8.27;6.67;;;8.50;99.90;;;;;;4993689;28;20031;-80
2022/04/26 10:06:37;;;;;;;9.57;5.88;;;8.40;99.90;;;;;;4994275;28;20092;-79
2022/04/26 10:09:04;;;;;;;8.73;5.35;;;8.40;99.90;;;;;;4991480;28;20038;-80
2022/04/26 10:11:30;;;;;;;9.20;5.70;;;8.40;99.90;;;;;;5006607;28;20512;-80
2022/04/26 10:13:57;;;;;;;7.88;5.20;;;8.20;99.90;;;;;;4992811;28;20026;-84
2022/04/26 10:16:23;;;;;;;9.50;5.60;;;8.20;99.90;;;;;;4994761;28;20022;-84
2022/04/26 10:18:50;;;;;;;9.32;5.72;;;8.20;99.90;;;;;;4993896;28;20080;-84
2022/04/26 10:21:21;;;;;;;10.10;6.38;;;8.20;99.90;;;;;;4989370;28;20081;-85
2022/04/26 10:23:50;;;;;;;10.90;7.20;;;8.10;99.90;;;;;;4992684;28;20057;-84
2022/04/26 10:26:22;;;;;;;9.30;5.95;;;8.20;99.90;;;;;;4993463;28;20053;-84
2022/04/26 10:28:54;;;;;;;10.18;6.05;;;8.50;99.90;;;;;;4991666;28;20038;-84
2022/04/26 10:31:40;;;;;;;9.43;6.68;;;8.60;99.90;;;;;;5002254;28;20780;-84
2022/04/26 10:34:18;;;;;;;8.63;5.60;;;8.70;99.90;;;;;;4992394;28;20472;-86
2022/04/26 10:36:54;;;;;;;9.75;5.78;;;8.90;99.90;;;;;;4981541;28;20022;-86
2022/04/26 10:39:50;;;;;;;9.82;5.70;;;9.00;99.90;;;;;;4992492;28;20826;-86
2022/04/26 10:42:16;;;;;;;9.02;5.43;;;9.10;99.90;;;;;;4970807;28;20026;-86
2022/04/26 10:44:46;;;;;;;7.55;5.10;;;8.90;99.90;;;;;;4992283;28;20050;-86
2022/04/26 10:47:24;;;;;;;10.40;6.45;;;8.90;99.90;;;;;;5008189;28;20033;-84
2022/04/26 10:49:52;;;;;;;11.73;5.55;;;9.00;99.90;;;;;;4973088;28;20383;-86
2022/04/26 10:52:26;;;;;;;7.97;5.00;;;9.20;99.90;;;;;;4991129;28;20038;-86
2022/04/26 10:54:55;;;;;;;10.95;6.28;;;9.50;99.90;;;;;;4995042;28;20029;-86
2022/04/26 10:57:23;;;;;;;7.40;5.13;;;10.20;99.90;;;;;;4989926;28;20110;-86
2022/04/26 10:59:56;;;;;;;8.23;4.80;;;10.90;99.90;;;;;;4988234;28;20066;-86
2022/04/26 11:02:23;;;;;;;9.05;5.40;;;10.80;99.90;;;;;;4986568;28;20035;-86
2022/04/26 11:05:04;;;;;;;8.43;4.90;;;10.40;99.90;;;;;;4987134;28;20038;-86
2022/04/26 11:07:30;;;;;;;7.65;5.00;;;11.00;99.90;;;;;;4984851;28;20031;-85
2022/04/26 11:09:57;;;;;;;8.02;5.30;;;11.80;99.90;;;;;;5004239;28;20065;-85
2022/04/26 11:12:29;;;;;;;7.22;5.32;;;11.30;99.90;;;;;;4983856;28;20030;-84
2022/04/26 11:14:57;;;;;;;8.75;4.78;;;11.40;99.90;;;;;;4988131;28;20125;-85
2022/04/26 11:17:24;;;;;;;6.97;4.50;;;11.70;99.90;;;;;;4991804;28;20037;-85
2022/04/26 11:19:57;;;;;;;6.57;4.80;;;11.60;99.90;;;;;;4985620;28;20412;-84
2022/04/26 11:22:26;;;;;;;7.90;4.63;;;11.40;99.90;;;;;;4990856;28;20085;-84
2022/04/26 11:28:00;;;;;;;6.72;4.38;;;10.40;99.90;;;;;;4987192;28;20037;-84
2022/04/26 11:30:30;;;;;;;7.05;4.47;;;10.80;99.90;;;;;;4988824;28;20034;-84
2022/04/26 11:33:01;;;;;;;7.20;5.25;;;11.20;99.90;;;;;;4989097;28;20556;-85
2022/04/26 11:35:28;;;;;;;7.15;4.35;;;10.90;99.90;;;;;;5006428;28;20113;-85
2022/04/26 11:37:56;;;;;;;7.40;4.80;;;10.90;99.90;;;;;;4991304;28;20030;-81
2022/04/26 11:40:26;;;;;;;7.10;5.00;;;10.90;99.90;;;;;;4989136;28;20386;-82
2022/04/26 11:42:54;;;;;;;9.02;5.38;;;11.10;99.90;;;;;;4986529;28;20030;-82
2022/04/26 11:45:21;;;;;;;5.85;4.35;;;12.40;99.90;;;;;;4990025;28;20185;-82
2022/04/26 11:47:48;;;;;;;10.68;5.38;;;12.20;99.90;;;;;;4984806;28;20374;-81
2022/04/26 11:50:19;;;;;;;5.45;4.40;;;11.90;99.90;;;;;;4980142;28;20398;-80
2022/04/26 11:52:45;;;;;;;;;;;12.20;99.90;;;;;;4991000;28;20039;-80
2022/04/26 11:55:24;;;;;;;7.95;5.72;;;11.30;99.90;;;;;;4986703;28;19992;-80
2022/04/26 11:57:51;;;;;;;9.00;5.30;;;10.60;99.90;;;;;;4986852;28;20450;-80
2022/04/26 12:00:21;;;;;;;7.03;4.97;;;10.60;99.90;;;;;;4984953;28;20045;-80
2022/04/26 12:02:48;;;;;;;10.52;5.20;;;10.60;99.90;;;;;;4981204;28;20023;-80
2022/04/26 12:05:21;;;;;;;8.02;5.15;;;11.30;99.90;;;;;;4981945;28;20049;-80
2022/04/26 12:07:48;;;;;;;9.93;4.53;;;11.30;99.90;;;;;;4989080;28;20137;-80
2022/04/26 12:10:30;;;;;;;9.20;4.65;;;11.10;99.90;;;;;;4989949;28;20030;-80
2022/04/26 12:12:58;;;;;;;6.25;4.88;;;12.90;99.90;;;;;;4984436;28;20058;-80
2022/04/26 12:15:26;;;;;;;6.47;5.10;;;13.50;99.90;;;;;;4980919;28;20157;-81
2022/04/26 12:18:15;;;;;;;5.90;4.10;;;13.50;99.90;;;;;;4983361;28;20027;-84
2022/04/26 12:21:02;;;;;;;5.72;3.90;;;12.40;99.90;;;;;;4985507;28;20029;-83
2022/04/26 12:23:29;;;;;;;7.40;3.92;;;12.80;99.90;;;;;;4977149;28;20680;-84
2022/04/26 12:26:01;;;;;;;5.35;3.88;;;13.20;99.90;;;;;;4977033;28;20121;-84
2022/04/26 12:28:28;;;;;;;7.07;4.53;;;14.40;99.90;;;;;;4989460;28;20065;-84
2022/04/26 12:30:54;;;;;;;6.72;4.20;;;13.70;99.90;;;;;;4984273;28;20030;-84
2022/04/26 12:33:27;;;;;;;6.43;4.93;;;13.70;99.90;;;;;;4989751;28;20042;-84
2022/04/26 12:36:03;;;;;;;7.55;4.45;;;13.30;99.90;;;;;;4991192;28;20089;-84
2022/04/26 12:38:30;;;;;;;6.70;3.97;;;14.30;99.90;;;;;;4973526;28;20089;-83
2022/04/26 12:41:06;;;;;;;5.20;4.35;;;14.20;99.90;;;;;;4989223;28;20027;-83
2022/04/26 12:43:32;;;;;;;5.93;4.80;;;14.00;99.90;;;;;;4988271;28;20041;-83
2022/04/26 12:46:03;;;;;;;5.85;4.63;;;13.40;99.90;;;;;;4987579;28;20498;-82
2022/04/26 12:51:27;;;;;;;5.97;4.50;;;13.10;99.90;;;;;;5012159;28;20033;-84
2022/04/26 12:54:05;;;;;;;7.03;4.60;;;12.80;99.90;;;;;;5009708;28;20025;-85
2022/04/26 12:56:30;;;;;;;6.15;4.30;;;12.80;99.90;;;;;;4992806;28;20031;-85
2022/04/26 12:58:56;;;;;;;6.10;4.65;;;13.40;99.90;;;;;;4995009;28;20031;-84
2022/04/26 13:01:22;;;;;;;9.02;5.13;;;13.40;99.90;;;;;;5002708;28;20029;-84
2022/04/26 13:03:48;;;;;;;6.10;4.50;;;12.70;99.90;;;;;;5022993;28;20034;-85
2022/04/26 13:06:17;;;;;;;5.95;4.47;;;12.30;99.90;;;;;;5001318;28;20082;-85
2022/04/26 13:08:47;;;;;;;5.70;4.07;;;12.60;99.90;;;;;;4989359;28;20030;-84
2022/04/26 13:11:17;;;;;;;6.75;4.60;;;11.70;99.90;;;;;;5009412;28;20022;-85
2022/04/26 13:13:46;;;;;;;7.50;4.93;;;11.30;99.90;;;;;;4997403;28;20026;-86
2022/04/26 13:16:12;;;;;;;7.18;4.75;;;10.70;99.90;;;;;;4995188;28;20026;-84
2022/04/26 13:18:40;;;;;;;7.50;4.93;;;10.50;99.90;;;;;;4980881;28;20037;-84
2022/04/26 13:21:06;;;;;;;9.32;6.05;;;10.10;99.90;;;;;;5014499;28;20049;-86
2022/04/26 13:23:34;;;;;;;7.03;5.32;;;9.80;99.90;;;;;;4998605;28;20038;-86
2022/04/26 13:26:00;;;;;;;9.68;6.25;;;9.30;99.90;;;;;;4986960;28;20042;-86
2022/04/26 13:28:26;;;;;;;7.88;3.25;;;9.20;99.90;;;;;;4990165;28;20054;-85
2022/04/26 13:30:52;;;;;;;7.38;2.40;;;8.30;99.90;;;;;;4999496;28;20046;-87
2022/04/26 13:33:18;;;;;;;4.03;2.53;;;7.70;99.90;;;;;;4998601;28;20748;-83
2022/04/26 13:35:44;;;;;;;5.22;2.40;;;7.50;99.90;;;;;;4997168;28;20034;-84
2022/04/26 13:38:11;;;;;;;2.58;1.80;;;7.60;99.90;;;;;;4982471;28;20427;-84
2022/04/26 13:40:38;;;;;;;5.32;2.47;;;7.70;99.90;;;;;;4996837;28;20053;-84
2022/04/26 13:43:05;;;;;;;9.30;3.42;;;8.20;99.90;;;;;;4996346;28;20033;-84
2022/04/26 13:45:32;;;;;;;8.52;3.25;;;8.30;99.90;;;;;;4996082;28;20050;-84
2022/04/26 13:48:08;;;;;;;5.63;3.80;;;8.80;99.90;;;;;;4996674;28;20035;-83
2022/04/26 13:50:33;;;;;;;6.03;3.88;;;9.30;99.90;;;;;;4979474;28;20041;-87
2022/04/26 13:52:59;;;;;;;6.38;3.85;;;9.40;99.90;;;;;;4997403;28;20110;-86
2022/04/26 13:55:26;;;;;;;7.32;3.47;;;10.40;99.90;;;;;;4991429;28;20035;-84
2022/04/26 13:57:54;;;;;;;5.65;3.28;;;11.10;99.90;;;;;;4987715;28;20105;-84
2022/04/26 14:00:20;;;;;;;5.15;3.33;;;12.10;99.90;;;;;;5000077;28;20145;-84
2022/04/26 14:02:46;;;;;;;5.15;3.60;;;12.20;99.90;;;;;;5000445;28;20222;-84
2022/04/26 14:05:12;;;;;;;4.70;3.85;;;11.60;99.90;;;;;;4981445;28;20034;-84
2022/04/26 14:07:38;;;;;;;7.20;4.70;;;12.70;99.90;;;;;;4980199;28;20827;-84
2022/04/26 14:10:04;;;;;;;5.32;4.07;;;11.90;99.90;;;;;;4995225;28;20037;-84
2022/04/26 14:12:30;;;;;;;5.65;3.80;;;11.90;99.90;;;;;;5002704;28;20670;-84
2022/04/26 14:23:28;;;;;;;5.57;3.60;;;9.80;99.90;;;;;;4993608;28;20057;-84
2022/04/26 14:25:54;;;;;;;3.97;3.22;;;9.20;99.90;;;;;;4992396;28;20075;-81
2022/04/26 14:28:21;;;;;;;5.25;3.30;;;9.60;99.90;;;;;;5005773;28;20485;-84
2022/04/26 14:30:47;;;;;;;4.78;3.42;;;9.80;99.90;;;;;;4984244;28;20026;-80
2022/04/26 14:33:14;;;;;;;5.50;3.10;;;10.30;99.90;;;;;;4974468;28;20030;-83
2022/04/26 14:35:40;;;;;;;6.28;3.42;;;10.40;99.90;;;;;;4971833;28;20113;-83
2022/04/26 14:38:07;;;;;;;6.18;3.38;;;11.20;99.90;;;;;;4978398;28;20030;-83
2022/04/26 14:40:33;;;;;;;5.50;2.92;;;10.70;99.90;;;;;;4978360;28;20369;-82
2022/04/26 14:42:59;;;;;;;5.20;3.53;;;11.20;99.90;;;;;;4987888;28;20022;-83
2022/04/26 14:45:24;;;;;;;4.45;2.70;;;11.20;99.90;;;;;;5000195;28;20136;-83
2022/04/26 14:47:50;;;;;;;4.97;2.85;;;12.00;99.90;;;;;;4959625;28;20042;-83
2022/04/26 14:50:17;;;;;;;3.85;3.03;;;13.40;99.90;;;;;;5000003;28;20030;-83
2022/04/26 14:52:43;;;;;;;3.30;2.58;;;12.40;99.90;;;;;;4994490;28;20037;-86
2022/04/26 14:55:10;;;;;;;4.43;2.78;;;12.40;99.90;;;;;;4994666;28;20026;-85
2022/04/26 14:57:36;;;;;;;2.45;2.08;;;13.80;99.90;;;;;;4981243;28;20018;-84
2022/04/26 15:00:08;;;;;;;3.22;2.05;;;13.60;99.90;;;;;;4986526;28;20033;-83
2022/04/26 15:02:40;;;;;;;3.03;2.10;;;14.30;99.90;;;;;;4999601;28;20053;-84
2022/04/26 15:05:11;;;;;;;3.17;1.80;;;15.20;99.90;;;;;;4999387;28;20030;-83
2022/04/26 15:10:35;;;;;;;2.88;1.90;;;11.50;99.90;;;;;;4947729;28;20118;-84
2022/04/26 15:18:49;;;;;;;2.80;1.75;;;11.30;99.90;;;;;;4933611;29;20039;-83
2022/04/26 15:21:15;;;;;;;2.78;2.03;;;12.30;99.90;;;;;;4969486;28;20398;-84
2022/04/26 15:23:41;;;;;;;3.10;2.40;;;11.60;99.90;;;;;;4994545;28;20041;-84
2022/04/26 15:26:06;;;;;;;2.83;1.83;;;11.70;99.90;;;;;;4967438;28;20038;-84
2022/04/26 15:28:36;;;;;;;4.55;2.15;;;11.70;99.90;;;;;;4966829;28;20123;-84
2022/04/26 15:31:01;;;;;;;3.05;2.40;;;11.90;99.90;;;;;;4992950;28;20070;-84
2022/04/26 15:33:27;;;;;;;3.47;2.70;;;13.20;99.90;;;;;;4975267;28;20069;-84
2022/04/26 15:35:55;;;;;;;3.05;2.30;;;13.80;99.90;;;;;;4991215;28;20031;-82
2022/04/26 15:38:21;;;;;;;5.63;2.45;;;15.10;99.90;;;;;;4978306;28;20241;-82
2022/04/26 15:40:47;;;;;;;3.60;2.58;;;15.60;97.60;;;;;;4972062;28;20019;-83
2022/04/26 15:43:15;;;;;;;3.47;2.42;;;16.00;98.20;;;;;;4962722;28;20043;-83
2022/04/26 15:45:42;;;;;;;3.58;3.03;;;15.60;99.90;;;;;;4990238;28;20394;-83
2022/04/26 15:48:08;;;;;;;3.17;2.88;;;15.50;95.10;;;;;;4971867;28;20035;-83
2022/04/26 15:50:34;;;;;;;4.22;3.40;;;14.50;99.90;;;;;;4988164;28;20499;-83
2022/04/26 15:53:00;;;;;;;5.40;3.13;;;13.60;99.90;;;;;;4982786;28;20146;-83
2022/04/26 15:55:25;;;;;;;4.38;3.08;;;13.10;99.90;;;;;;4971765;28;20117;-83
2022/04/26 15:57:51;;;;;;;4.40;3.42;;;13.60;99.50;;;;;;4970125;28;20035;-83
2022/04/26 16:00:20;;;;;;;5.28;3.13;;;13.40;99.90;;;;;;4957394;28;20120;-83
2022/04/26 16:02:46;;;;;;;4.63;3.10;;;11.90;99.10;;;;;;4997748;28;20022;-79
2022/04/26 16:05:13;;;;;;;3.92;2.90;;;11.70;99.90;;;;;;4974349;28;20113;-79
2022/04/26 16:07:39;;;;;;;3.58;2.70;;;11.80;99.90;;;;;;4986748;28;20056;-79
2022/04/26 16:21:04;;;;;;;2.30;2.00;;;12.60;99.90;;;;;;4995110;28;20273;-80
2022/04/26 16:23:30;;;;;;;3.22;2.20;;;13.10;99.90;;;;;;4992855;28;20497;-80
2022/04/26 16:26:02;;;;;;;3.03;2.13;;;14.60;97.80;;;;;;4986034;28;20033;-80
2022/04/26 16:28:34;;;;;;;2.72;2.00;;;15.30;99.90;;;;;;4995436;28;20142;-79
2022/04/26 16:31:00;;;;;;;2.83;2.08;;;12.90;99.90;;;;;;4968290;28;20030;-80
2022/04/26 16:33:26;;;;;;;2.55;2.03;;;13.80;99.90;;;;;;4967683;28;20031;-80
2022/04/26 16:35:54;;;;;;;2.90;2.00;;;13.00;99.90;;;;;;4968720;28;20300;-80
2022/04/26 16:38:20;;;;;;;3.25;2.17;;;13.10;95.60;;;;;;4951258;28;20034;-81
2022/04/26 16:40:47;;;;;;;3.33;2.60;;;11.40;99.90;;;;;;4968339;28;20030;-81
2022/04/26 16:43:17;;;;;;;4.00;2.88;;;10.40;99.90;;;;;;4968382;28;20022;-80
2022/04/26 16:45:48;;;;;;;3.37;3.07;;;10.00;99.90;;;;;;4955157;28;20065;-80
2022/04/26 16:48:15;;;;;;;4.75;2.90;;;9.40;99.90;;;;;;4968086;28;20469;-80
2022/04/26 16:50:41;;;;;;;3.65;2.60;;;9.30;99.90;;;;;;4973316;28;20385;-80
2022/04/26 16:53:06;;;;;;;4.43;2.70;;;9.20;99.90;;;;;;4968964;28;20027;-80
2022/04/26 16:55:32;;;;;;;3.25;2.33;;;8.80;99.90;;;;;;4966538;28;20035;-80
2022/04/26 16:58:00;;;;;;;3.72;2.42;;;8.90;99.90;;;;;;4980811;28;20023;-80
2022/04/26 17:00:26;;;;;;;3.85;2.47;;;8.80;99.90;;;;;;4969320;28;20073;-80
2022/04/26 17:02:52;;;;;;;3.22;2.60;;;8.70;99.90;;;;;;4971549;28;20035;-80
2022/04/26 17:05:22;;;;;;;3.75;2.50;;;8.60;99.90;;;;;;4956701;28;20043;-80
2022/04/26 17:07:50;;;;;;;4.47;2.95;;;8.70;99.90;;;;;;4969834;28;20038;-80
2022/04/26 17:10:17;;;;;;;4.78;2.80;;;8.70;99.90;;;;;;4948697;28;20046;-80
2022/04/26 17:12:44;;;;;;;3.88;2.50;;;8.60;99.90;;;;;;4969613;28;20035;-80
2022/04/26 17:15:10;;;;;;;3.72;2.60;;;9.50;99.90;;;;;;4975176;28;20037;-80